Time;durP1;ratioP1;P1;durP2;ratioP2;P2;SDS_P1;SDS_P2;PMS_P1;PMS_P2;Temp;Humidity;BMP_temperature;BMP_pressure;BME280_temperature;BME280_humidity;BME280_pressure;Samples;Min_cycle;Max_cycle;Signal;HPM_P1;HPM_P2
2020/12/16 00:01:00;;;;;;;61.08;27.92;;;;;;;3.69;73.07;99894.44;5095125;28;20082;-45
2020/12/16 00:03:26;;;;;;;59.58;26.75;;;;;;;3.68;73.24;99891.88;5095929;28;20052;-45
2020/12/16 00:05:52;;;;;;;68.20;30.73;;;;;;;3.68;73.30;99890.16;5096093;28;20064;-45
2020/12/16 00:08:18;;;;;;;66.55;29.10;;;;;;;3.67;73.32;99893.59;5096242;28;20058;-45
2020/12/16 00:10:43;;;;;;;71.90;27.98;;;;;;;3.68;73.26;99897.06;5095247;28;20056;-45
2020/12/16 00:13:10;;;;;;;61.78;27.92;;;;;;;3.69;73.07;99902.22;5096180;28;20459;-45
2020/12/16 00:15:37;;;;;;;60.45;27.05;;;;;;;3.69;73.03;99904.81;5096184;28;20048;-45
2020/12/16 00:18:03;;;;;;;60.63;26.52;;;;;;;3.68;73.06;99910.88;5094997;28;20052;-45
2020/12/16 00:20:29;;;;;;;63.47;26.63;;;;;;;3.65;73.21;99918.63;5095717;28;20048;-45
2020/12/16 00:22:55;;;;;;;61.00;28.25;;;;;;;3.66;73.05;99909.97;5096191;28;20048;-45
2020/12/16 00:25:20;;;;;;;47.53;23.40;;;;;;;3.67;73.14;99918.63;5095763;28;20044;-45
2020/12/16 00:27:46;;;;;;;43.45;20.40;;;;;;;3.66;73.00;99922.06;5096086;28;20048;-45
2020/12/16 00:30:13;;;;;;;35.17;17.48;;;;;;;3.66;72.86;99922.94;5061572;28;20047;-45
2020/12/16 00:32:38;;;;;;;34.45;17.13;;;;;;;3.72;72.57;99917.78;5096007;28;20044;-45
2020/12/16 00:35:05;;;;;;;32.40;16.90;;;;;;;3.67;72.72;99916.91;5095755;28;20043;-45
2020/12/16 00:37:35;;;;;;;31.88;14.75;;;;;;;3.73;72.47;99927.28;5095643;28;20440;-45
2020/12/16 00:40:02;;;;;;;25.90;13.90;;;;;;;3.72;72.58;99927.28;5095912;28;20100;-45
2020/12/16 00:42:28;;;;;;;28.00;14.25;;;;;;;3.71;72.69;99935.94;5095838;28;20070;-45
2020/12/16 00:44:53;;;;;;;28.85;13.85;;;;;;;3.77;72.46;99933.38;5095929;28;20440;-45
2020/12/16 00:47:19;;;;;;;30.00;14.45;;;;;;;3.80;72.48;99927.31;5095863;28;20046;-45
2020/12/16 00:49:45;;;;;;;29.92;15.70;;;;;;;3.83;72.49;99924.72;5082245;28;20043;-45
2020/12/16 00:52:11;;;;;;;31.05;14.48;;;;;;;3.83;72.58;99925.59;5099333;28;20040;-45
2020/12/16 00:54:37;;;;;;;29.25;15.60;;;;;;;3.83;72.26;99925.59;5099486;28;20321;-45
2020/12/16 00:57:03;;;;;;;37.53;18.38;;;;;;;3.82;72.29;99930.78;5099206;28;20036;-45
2020/12/16 00:59:28;;;;;;;36.08;19.00;;;;;;;3.87;72.05;99937.72;5099492;28;20062;-45
2020/12/16 01:01:55;;;;;;;35.83;17.27;;;;;;;3.86;72.04;99935.13;5098525;28;20352;-45
2020/12/16 01:04:21;;;;;;;34.22;18.55;;;;;;;3.80;72.20;99942.84;5098078;28;20052;-45
2020/12/16 01:06:47;;;;;;;34.97;17.50;;;;;;;3.81;72.45;99950.66;5098205;28;20051;-45
2020/12/16 01:09:15;;;;;;;37.58;19.08;;;;;;;3.80;72.50;99948.03;5098342;28;20133;-44
2020/12/16 01:11:41;;;;;;;31.02;16.58;;;;;;;3.79;72.43;99959.28;5098327;28;20456;-45
2020/12/16 01:14:07;;;;;;;36.25;16.80;;;;;;;3.84;72.47;99958.44;5098847;28;20076;-45
2020/12/16 01:16:36;;;;;;;29.85;15.35;;;;;;;3.85;72.37;99959.31;5098185;28;20139;-45
2020/12/16 01:19:08;;;;;;;31.67;16.20;;;;;;;3.85;72.29;99948.94;5098245;28;20052;-45
2020/12/16 01:21:38;;;;;;;29.17;14.98;;;;;;;3.84;72.56;99960.19;5097829;28;20134;-45
2020/12/16 01:24:05;;;;;;;31.23;16.25;;;;;;;3.85;72.46;99960.16;5098902;28;20066;-45
2020/12/16 01:26:48;;;;;;;31.25;15.65;;;;;;;3.83;72.69;99961.00;5098913;28;20048;-45
2020/12/16 01:29:17;;;;;;;29.77;15.32;;;;;;;3.82;72.82;99969.66;5098062;28;20048;-45
2020/12/16 01:31:47;;;;;;;27.67;13.93;;;;;;;3.90;72.79;99968.84;5097986;28;20075;-45
2020/12/16 01:34:23;;;;;;;29.98;14.50;;;;;;;3.92;72.87;99963.66;5097665;28;20051;-45
2020/12/16 01:36:56;;;;;;;;;;;;;;;3.71;72.82;99967.00;5098080;28;20051;-45
2020/12/16 01:39:22;;;;;;;28.92;13.65;;;;;;;3.81;73.10;99963.59;5097464;28;19920;-45
2020/12/16 01:41:48;;;;;;;24.30;13.32;;;;;;;3.92;72.77;99961.91;5097727;28;20048;-45
2020/12/16 01:44:19;;;;;;;31.00;15.25;;;;;;;3.95;72.69;99956.75;5097671;28;20127;-45
2020/12/16 01:46:52;;;;;;;31.17;15.60;;;;;;;3.99;72.34;99965.41;5097972;28;20036;-45
2020/12/16 01:49:21;;;;;;;27.30;14.02;;;;;;;3.99;72.71;99965.41;5097346;28;20453;-45
2020/12/16 01:51:50;;;;;;;29.02;14.73;;;;;;;4.01;72.61;99968.00;5097546;28;20048;-45
2020/12/16 01:54:15;;;;;;;30.50;15.25;;;;;;;4.02;72.67;99968.00;5097163;28;20048;-45
2020/12/16 01:56:42;;;;;;;25.58;14.32;;;;;;;4.04;72.70;99962.84;5080662;28;20056;-45
2020/12/16 01:59:23;;;;;;;27.10;14.13;;;;;;;4.06;72.07;99967.16;5081325;28;20424;-45
2020/12/16 02:01:54;;;;;;;24.40;13.45;;;;;;;4.11;72.45;99975.81;5099096;28;20063;-45
2020/12/16 02:04:23;;;;;;;27.10;14.73;;;;;;;4.12;72.22;99974.94;5097012;28;20055;-45
2020/12/16 02:06:49;;;;;;;23.48;13.18;;;;;;;4.18;72.01;99974.97;5098114;28;20075;-45
2020/12/16 02:09:15;;;;;;;27.60;14.15;;;;;;;4.16;72.14;99976.72;5098036;28;20131;-45
2020/12/16 02:11:54;;;;;;;27.83;14.85;;;;;;;4.15;72.10;99982.75;5082208;28;20047;-45
2020/12/16 02:14:25;;;;;;;29.55;14.57;;;;;;;4.20;72.19;99980.19;5097141;28;20394;-45
2020/12/16 02:16:54;;;;;;;24.25;12.93;;;;;;;4.20;72.15;99988.81;5096761;28;20082;-45
2020/12/16 02:19:20;;;;;;;24.48;12.95;;;;;;;4.23;72.39;99985.38;5096614;28;20070;-45
2020/12/16 02:21:56;;;;;;;24.60;12.10;;;;;;;4.24;72.16;99996.63;5097848;28;20056;-45
2020/12/16 02:24:22;;;;;;;26.38;13.75;;;;;;;4.21;72.62;99994.88;5079864;28;20403;-45
2020/12/16 02:26:49;;;;;;;28.27;12.50;;;;;;;4.24;72.39;99988.84;5064154;28;20126;-45
2020/12/16 02:29:16;;;;;;;23.25;12.18;;;;;;;4.27;72.37;99984.53;5096862;28;20059;-45
2020/12/16 02:31:46;;;;;;;25.55;12.48;;;;;;;4.29;72.50;99977.63;5096856;28;20082;-45
2020/12/16 02:34:13;;;;;;;23.25;12.30;;;;;;;4.33;72.50;99996.66;5096546;28;20044;-45
2020/12/16 02:36:43;;;;;;;22.30;12.68;;;;;;;4.29;73.00;99988.00;5096663;28;20052;-45
2020/12/16 02:39:34;;;;;;;23.02;12.73;;;;;;;4.34;72.61;99986.28;5096956;28;20060;-45
2020/12/16 02:42:10;;;;;;;23.63;12.10;;;;;;;4.27;73.21;99988.84;5080839;28;20410;-45
2020/12/16 02:44:36;;;;;;;27.25;14.25;;;;;;;4.30;72.95;99994.06;5097221;28;20062;-45
2020/12/16 02:47:20;;;;;;;21.65;11.70;;;;;;;4.31;72.75;99980.22;5097186;28;20372;-45
2020/12/16 02:49:47;;;;;;;25.45;12.23;;;;;;;4.29;73.23;99981.91;5079724;28;20164;-45
2020/12/16 02:52:13;;;;;;;23.42;12.50;;;;;;;4.34;73.16;99982.81;5096165;28;20044;-45
2020/12/16 02:54:39;;;;;;;23.88;12.73;;;;;;;4.34;72.89;99988.00;5096997;28;20357;-45
2020/12/16 02:57:11;;;;;;;24.95;13.68;;;;;;;4.24;73.67;99986.25;5096434;28;20036;-45
2020/12/16 02:59:40;;;;;;;22.63;11.25;;;;;;;4.29;73.28;99994.88;5096263;28;20040;-45
2020/12/16 03:02:24;;;;;;;22.88;12.27;;;;;;;4.28;73.53;99990.56;5067730;28;20043;-45
2020/12/16 03:05:00;;;;;;;24.65;12.40;;;;;;;4.29;73.50;99992.28;5065585;28;20134;-45
2020/12/16 03:07:34;;;;;;;24.48;11.93;;;;;;;4.30;73.78;100005.28;5096702;28;20048;-44
2020/12/16 03:10:01;;;;;;;24.77;13.55;;;;;;;4.32;73.82;99998.38;5095638;28;20071;-45
2020/12/16 03:12:28;;;;;;;25.77;13.55;;;;;;;4.29;73.68;99993.19;5096486;28;20101;-45
2020/12/16 03:14:55;;;;;;;23.17;12.25;;;;;;;4.29;73.74;99997.47;5095691;28;20127;-45
2020/12/16 03:17:23;;;;;;;28.42;13.77;;;;;;;4.26;73.63;99997.47;5095752;28;20040;-45
2020/12/16 03:19:53;;;;;;;26.35;12.57;;;;;;;4.29;73.64;100006.16;5096502;28;20400;-45
2020/12/16 03:22:21;;;;;;;21.63;12.18;;;;;;;4.30;73.80;100002.69;5079351;28;20135;-45
2020/12/16 03:25:12;;;;;;;25.95;13.77;;;;;;;4.20;74.03;99999.19;5096198;28;20083;-44
2020/12/16 03:27:46;;;;;;;25.08;13.27;;;;;;;4.18;74.08;100006.09;5095886;28;20078;-44
2020/12/16 03:30:26;;;;;;;29.77;13.77;;;;;;;4.20;74.06;100006.97;5096124;28;20043;-45
2020/12/16 03:33:30;;;;;;;25.52;13.43;;;;;;;4.20;74.19;100011.31;5095416;28;20047;-45
2020/12/16 03:36:15;;;;;;;27.60;13.25;;;;;;;4.19;74.03;100005.25;5094744;28;20067;-44
2020/12/16 03:38:41;;;;;;;27.42;13.45;;;;;;;4.17;73.92;100011.28;5095072;28;20059;-44
2020/12/16 03:41:08;;;;;;;23.42;12.57;;;;;;;4.10;74.42;100000.03;5095913;28;20044;-45
2020/12/16 03:43:39;;;;;;;26.00;13.25;;;;;;;4.11;74.06;100008.66;5095405;28;20040;-45
2020/12/16 03:46:08;;;;;;;23.85;12.77;;;;;;;4.16;73.60;100010.44;5095283;28;20047;-45
2020/12/16 03:48:36;;;;;;;26.50;13.93;;;;;;;4.11;73.67;100006.94;5095598;28;20093;-44
2020/12/16 03:51:06;;;;;;;21.83;13.05;;;;;;;4.10;73.93;100013.00;5078841;28;20085;-44
2020/12/16 03:53:33;;;;;;;23.27;11.93;;;;;;;4.03;74.19;100012.94;5096204;28;20122;-45
2020/12/16 03:56:17;;;;;;;24.63;12.57;;;;;;;3.98;74.56;100012.94;5096426;28;20056;-44
2020/12/16 03:59:18;;;;;;;21.67;10.70;;;;;;;3.95;74.56;100023.28;5074411;28;20052;-45
2020/12/16 04:02:02;;;;;;;24.98;12.60;;;;;;;3.91;74.64;100019.81;5092348;28;20055;-45
2020/12/16 04:04:31;;;;;;;21.20;11.70;;;;;;;3.92;74.61;100015.47;5095914;28;20377;-45
2020/12/16 04:07:04;;;;;;;23.00;12.02;;;;;;;3.91;74.42;100021.53;5095442;28;20051;-44
2020/12/16 04:09:35;;;;;;;21.50;12.25;;;;;;;3.89;74.58;100037.06;5095430;28;20048;-45
2020/12/16 04:12:02;;;;;;;20.17;11.85;;;;;;;3.85;74.68;100031.84;5096157;28;20058;-45
2020/12/16 04:14:33;;;;;;;20.52;12.02;;;;;;;3.83;74.77;100036.16;5095999;28;20040;-45
2020/12/16 04:17:00;;;;;;;22.92;12.38;;;;;;;3.79;74.86;100045.63;5096218;28;20402;-45
2020/12/16 04:19:39;;;;;;;22.08;12.32;;;;;;;3.82;74.71;100039.63;5095296;28;20055;-45
2020/12/16 04:22:05;;;;;;;21.77;11.45;;;;;;;3.80;75.09;100044.78;5095252;28;20048;-45
2020/12/16 04:24:36;;;;;;;25.08;11.68;;;;;;;3.81;74.90;100041.34;5100178;28;20363;-45
2020/12/16 04:27:08;;;;;;;20.98;11.38;;;;;;;3.80;74.96;100047.38;5099293;28;20350;-45
2020/12/16 04:29:37;;;;;;;21.70;10.95;;;;;;;3.81;74.62;100043.06;5099182;28;20048;-45
2020/12/16 04:32:02;;;;;;;21.48;11.20;;;;;;;3.79;74.74;100043.03;5099133;28;20059;-45
2020/12/16 04:34:36;;;;;;;23.85;11.90;;;;;;;3.75;74.81;100041.31;5083365;28;20051;-45
2020/12/16 04:37:02;;;;;;;22.77;10.90;;;;;;;3.75;74.94;100039.56;5098970;28;20325;-45
2020/12/16 04:39:30;;;;;;;21.67;11.63;;;;;;;3.78;74.51;100043.06;5098814;28;20424;-45
2020/12/16 04:41:58;;;;;;;21.05;11.30;;;;;;;3.75;74.49;100034.41;5098939;28;20056;-45
2020/12/16 04:44:24;;;;;;;26.00;13.00;;;;;;;3.78;74.64;100045.66;5098653;28;20040;-45
2020/12/16 04:46:58;;;;;;;25.15;13.13;;;;;;;3.74;74.95;100048.22;5098842;28;20048;-45
2020/12/16 04:49:31;;;;;;;25.35;13.63;;;;;;;3.72;74.94;100042.16;5067941;28;20100;-45
2020/12/16 04:51:57;;;;;;;28.35;14.48;;;;;;;3.72;75.24;100039.56;5098748;28;20452;-45
2020/12/16 04:54:43;;;;;;;35.40;19.58;;;;;;;3.67;75.73;100043.84;5098399;28;20386;-45
2020/12/16 04:57:16;;;;;;;37.63;17.98;;;;;;;3.72;75.71;100038.69;5067862;28;20052;-45
2020/12/16 04:59:43;;;;;;;34.28;16.33;;;;;;;3.81;75.26;100043.06;5065235;28;20052;-45
2020/12/16 05:02:20;;;;;;;32.42;17.05;;;;;;;3.82;75.57;100043.06;5099364;28;20048;-45
2020/12/16 05:05:22;;;;;;;37.45;17.58;;;;;;;3.81;75.38;100048.25;5077270;28;20068;-45
2020/12/16 05:07:48;;;;;;;28.55;14.10;;;;;;;3.84;75.29;100041.38;5094639;28;20047;-45
2020/12/16 05:10:15;;;;;;;27.00;13.70;;;;;;;3.92;75.13;100049.16;5099125;28;20454;-45
2020/12/16 05:12:42;;;;;;;21.08;11.20;;;;;;;3.96;75.06;100046.63;5098917;28;20463;-45
2020/12/16 05:15:35;;;;;;;26.90;13.75;;;;;;;3.98;74.44;100038.84;5098094;28;20055;-45
2020/12/16 05:18:10;;;;;;;21.60;12.13;;;;;;;4.00;75.14;100044.91;5098667;28;20163;-45
2020/12/16 05:20:37;;;;;;;27.15;12.63;;;;;;;3.96;75.38;100046.63;5097839;28;20517;-45
2020/12/16 05:23:04;;;;;;;24.33;13.32;;;;;;;4.01;75.12;100044.03;5098768;28;20356;-45
2020/12/16 05:25:29;;;;;;;24.55;14.52;;;;;;;4.06;74.97;100046.66;5099191;28;20048;-45
2020/12/16 05:27:55;;;;;;;28.10;15.48;;;;;;;4.06;74.95;100044.91;5098896;28;20402;-45
2020/12/16 05:30:21;;;;;;;23.23;13.15;;;;;;;4.11;75.03;100048.41;5064409;28;20430;-45
2020/12/16 05:32:47;;;;;;;20.40;11.48;;;;;;;4.12;75.01;100052.72;5098854;28;20036;-45
2020/12/16 05:35:25;;;;;;;21.58;11.23;;;;;;;4.14;74.59;100051.03;5098235;28;20040;-45
2020/12/16 05:37:51;;;;;;;22.88;11.38;;;;;;;4.15;75.03;100051.88;5098741;28;20040;-45
2020/12/16 05:40:22;;;;;;;19.80;10.98;;;;;;;4.19;74.91;100059.69;5098371;28;20105;-45
2020/12/16 05:42:49;;;;;;;20.70;12.02;;;;;;;4.19;74.72;100059.69;5098294;28;20483;-45
2020/12/16 05:45:15;;;;;;;19.73;11.93;;;;;;;4.21;74.58;100063.16;5098580;28;20060;-45
2020/12/16 05:47:42;;;;;;;23.17;12.45;;;;;;;4.26;74.35;100063.19;5098812;28;20497;-45
2020/12/16 05:50:18;;;;;;;20.95;11.98;;;;;;;4.27;74.46;100062.31;5097339;28;20123;-45
2020/12/16 05:52:45;;;;;;;20.13;11.23;;;;;;;4.33;74.59;100067.53;5097288;28;20048;-45
2020/12/16 05:55:10;;;;;;;19.02;11.38;;;;;;;4.33;74.45;100075.31;5097728;28;20048;-45
2020/12/16 05:57:36;;;;;;;21.35;12.75;;;;;;;4.37;74.67;100081.38;5098018;28;20112;-45
2020/12/16 06:00:09;;;;;;;28.73;19.23;;;;;;;4.35;74.77;100081.34;5098587;28;20044;-52
2020/12/16 06:02:42;;;;;;;35.47;23.45;;;;;;;4.46;74.38;100084.03;5097747;28;20062;-45
2020/12/16 06:05:13;;;;;;;37.70;21.77;;;;;;;4.52;73.93;100086.63;5097344;28;20048;-45
2020/12/16 06:07:45;;;;;;;36.95;20.77;;;;;;;4.49;74.29;100090.97;5097802;28;20443;-45
2020/12/16 06:10:12;;;;;;;31.50;17.80;;;;;;;4.49;74.49;100077.97;5098087;28;20455;-45
2020/12/16 06:12:40;;;;;;;33.08;17.08;;;;;;;4.54;74.47;100084.91;5097165;28;20044;-45
2020/12/16 06:15:10;;;;;;;32.55;16.60;;;;;;;4.55;74.06;100081.47;5097701;28;20056;-45
2020/12/16 06:17:43;;;;;;;35.97;16.15;;;;;;;4.59;73.82;100092.72;5097709;28;20428;-45
2020/12/16 06:20:17;;;;;;;34.70;17.30;;;;;;;4.61;74.12;100099.63;5080176;28;20047;-45
2020/12/16 06:22:45;;;;;;;50.50;19.92;;;;;;;4.58;74.19;100102.22;5098123;28;20052;-45
2020/12/16 06:25:13;;;;;;;69.10;27.02;;;;;;;4.54;74.43;100099.59;5097806;28;20048;-45
2020/12/16 06:27:49;;;;;;;100.15;35.13;;;;;;;4.60;74.08;100104.81;5098273;28;20060;-45
2020/12/16 06:30:17;;;;;;;93.53;37.15;;;;;;;4.54;74.35;100108.25;5097964;28;20055;-45
2020/12/16 06:32:46;;;;;;;69.53;26.77;;;;;;;4.60;74.16;100110.88;5096564;28;20040;-45
2020/12/16 06:35:19;;;;;;;39.55;18.25;;;;;;;4.59;73.94;100114.34;5079662;28;20043;-45
2020/12/16 06:37:45;;;;;;;32.80;16.20;;;;;;;4.58;74.10;100123.00;5097560;28;20051;-45
2020/12/16 06:40:11;;;;;;;31.38;14.88;;;;;;;4.51;74.29;100118.59;5097134;28;20444;-45
2020/12/16 06:42:37;;;;;;;28.95;15.55;;;;;;;4.54;74.38;100133.31;5097366;28;20051;-45
2020/12/16 06:45:09;;;;;;;29.65;16.65;;;;;;;4.57;74.21;100126.41;5096889;28;20140;-45
2020/12/16 06:47:35;;;;;;;27.20;15.60;;;;;;;4.56;74.05;100129.03;5097379;28;20047;-45
2020/12/16 06:50:18;;;;;;;25.58;15.63;;;;;;;4.58;73.88;100130.78;5096475;28;20067;-45
2020/12/16 06:52:44;;;;;;;25.10;14.70;;;;;;;4.57;74.44;100130.75;5096197;28;20460;-45
2020/12/16 06:55:10;;;;;;;35.60;18.50;;;;;;;4.62;74.30;100137.69;5096105;28;20060;-45
2020/12/16 06:57:48;;;;;;;32.55;17.77;;;;;;;4.69;73.81;100136.00;5097187;28;20048;-45
2020/12/16 07:00:22;;;;;;;34.50;18.60;;;;;;;4.72;73.86;100137.75;5096841;28;20364;-45
2020/12/16 07:02:48;;;;;;;29.90;18.48;;;;;;;4.68;73.94;100140.31;5095824;28;20048;-45
2020/12/16 07:05:49;;;;;;;27.77;17.58;;;;;;;4.64;73.58;100148.06;5079681;28;20090;-45
2020/12/16 07:08:26;;;;;;;31.85;18.40;;;;;;;4.73;73.90;100148.13;5095229;28;20118;-45
2020/12/16 07:10:52;;;;;;;34.33;21.38;;;;;;;4.66;74.33;100148.97;5096707;28;20044;-45
2020/12/16 07:13:22;;;;;;;36.00;22.15;;;;;;;4.74;74.08;100157.63;5096660;28;20051;-45
2020/12/16 07:15:52;;;;;;;47.13;25.25;;;;;;;4.77;73.93;100159.38;5096596;28;20051;-45
2020/12/16 07:18:51;;;;;;;59.85;33.25;;;;;;;4.77;73.33;100154.19;5079197;28;20044;-45
2020/12/16 07:21:18;;;;;;;67.07;36.40;;;;;;;4.74;74.14;100160.22;5096322;28;20052;-45
2020/12/16 07:23:45;;;;;;;66.05;37.83;;;;;;;4.79;73.90;100158.53;5096532;28;20063;-45
2020/12/16 07:26:24;;;;;;;72.60;40.15;;;;;;;4.81;73.69;100172.38;5096548;28;20040;-45
2020/12/16 07:28:50;;;;;;;67.20;35.90;;;;;;;4.80;73.93;100169.78;5097079;28;20047;-45
2020/12/16 07:31:16;;;;;;;63.13;34.60;;;;;;;4.85;73.73;100174.13;5095790;28;20052;-45
2020/12/16 07:33:41;;;;;;;51.33;31.73;;;;;;;4.88;73.50;100175.88;5095622;28;20064;-45
2020/12/16 07:36:07;;;;;;;49.30;28.60;;;;;;;4.90;73.61;100174.13;5096270;28;20059;-45
2020/12/16 07:38:33;;;;;;;40.75;22.77;;;;;;;4.85;73.60;100175.84;5096033;28;20040;-45
2020/12/16 07:40:59;;;;;;;39.35;21.25;;;;;;;4.89;73.75;100175.88;5096088;28;20360;-45
2020/12/16 07:43:25;;;;;;;32.83;20.40;;;;;;;4.89;73.61;100175.00;5096491;28;20056;-45
2020/12/16 07:46:04;;;;;;;33.05;18.88;;;;;;;4.95;73.20;100184.53;5096491;28;20079;-45
2020/12/16 07:48:30;;;;;;;37.00;20.48;;;;;;;4.91;73.83;100178.47;5096511;28;20043;-45
2020/12/16 07:51:03;;;;;;;37.92;22.20;;;;;;;4.98;73.49;100182.81;5095894;28;20382;-45
2020/12/16 07:53:29;;;;;;;39.28;23.42;;;;;;;4.96;73.64;100176.75;5078800;28;20413;-45
2020/12/16 07:56:14;;;;;;;40.63;24.25;;;;;;;4.99;73.08;100186.28;5096414;28;20126;-45
2020/12/16 07:58:39;;;;;;;35.95;20.85;;;;;;;4.98;73.56;100187.16;5099802;28;20048;-45
2020/12/16 08:01:09;;;;;;;34.50;20.08;;;;;;;4.99;73.44;100184.56;5099663;28;20071;-45
2020/12/16 08:03:35;;;;;;;31.23;17.63;;;;;;;5.01;73.44;100194.97;5100195;28;20063;-45
2020/12/16 08:06:00;;;;;;;31.35;17.92;;;;;;;5.04;73.31;100195.84;5100245;28;20440;-45
2020/12/16 08:08:27;;;;;;;30.63;16.42;;;;;;;5.01;73.44;100195.81;5100475;28;20052;-45
2020/12/16 08:10:53;;;;;;;30.85;14.65;;;;;;;5.05;73.12;100201.88;5099213;28;20076;-45
2020/12/16 08:13:23;;;;;;;27.15;14.68;;;;;;;5.04;73.05;100201.03;5100368;28;20062;-45
2020/12/16 08:15:49;;;;;;;24.67;14.35;;;;;;;5.01;73.10;100206.22;5100367;28;20048;-45
2020/12/16 08:18:16;;;;;;;24.50;14.07;;;;;;;5.03;73.24;100207.06;5100260;28;20052;-45
2020/12/16 08:20:42;;;;;;;26.00;14.88;;;;;;;5.00;73.07;100214.84;5099354;28;20123;-45
2020/12/16 08:23:11;;;;;;;23.55;14.02;;;;;;;5.04;72.68;100219.19;5100233;28;20129;-45
2020/12/16 08:25:37;;;;;;;22.65;13.48;;;;;;;4.97;72.97;100224.34;5099909;28;20087;-45
2020/12/16 08:28:05;;;;;;;20.85;11.23;;;;;;;4.93;73.21;100228.66;5082154;28;20325;-45
2020/12/16 08:30:31;;;;;;;23.73;12.48;;;;;;;4.93;73.09;100229.53;5099743;28;20070;-45
2020/12/16 08:33:06;;;;;;;22.35;12.73;;;;;;;4.96;73.00;100233.88;5100011;28;20036;-45
2020/12/16 08:35:48;;;;;;;31.70;15.80;;;;;;;4.93;73.23;100236.44;5082345;28;20048;-45
2020/12/16 08:38:18;;;;;;;22.70;12.35;;;;;;;4.93;73.44;100242.50;5098766;28;20040;-45
2020/12/16 08:40:47;;;;;;;19.70;11.55;;;;;;;4.96;73.38;100233.88;5081953;28;20055;-45
2020/12/16 08:43:19;;;;;;;23.83;12.98;;;;;;;4.94;73.65;100235.59;5098950;28;20105;-46
2020/12/16 08:45:46;;;;;;;26.50;13.55;;;;;;;4.91;73.98;100241.66;5099804;28;20052;-46
2020/12/16 08:48:11;;;;;;;23.88;12.52;;;;;;;4.90;74.36;100244.22;5099479;28;20032;-45
2020/12/16 08:50:37;;;;;;;24.95;13.23;;;;;;;4.94;74.38;100256.38;5099097;28;20048;-45
2020/12/16 08:53:03;;;;;;;22.83;13.60;;;;;;;4.93;74.12;100250.28;5099309;28;20048;-45
2020/12/16 08:55:33;;;;;;;23.42;12.82;;;;;;;4.93;74.19;100247.69;5098911;28;20048;-45
2020/12/16 08:58:01;;;;;;;20.65;12.27;;;;;;;4.95;74.60;100247.72;5098414;28;20436;-45
2020/12/16 09:00:32;;;;;;;25.38;14.82;;;;;;;4.99;74.66;100249.47;5099086;28;20072;-45
2020/12/16 09:03:06;;;;;;;33.10;16.27;;;;;;;4.97;74.98;100252.91;5098338;28;20078;-45
2020/12/16 09:05:33;;;;;;;28.85;14.63;;;;;;;4.95;75.48;100244.25;5099346;28;20048;-45
2020/12/16 09:08:17;;;;;;;27.15;15.45;;;;;;;4.97;75.52;100251.16;5098673;28;20090;-45
2020/12/16 09:10:43;;;;;;;30.40;16.13;;;;;;;4.97;75.74;100248.56;5098137;28;20047;-45
2020/12/16 09:13:18;;;;;;;33.22;18.95;;;;;;;4.97;76.11;100253.75;5099190;28;20076;-45
2020/12/16 09:15:50;;;;;;;36.90;18.67;;;;;;;4.99;75.93;100252.06;5098833;28;20055;-45
2020/12/16 09:18:16;;;;;;;33.70;19.77;;;;;;;4.98;76.02;100255.53;5098857;28;20044;-45
2020/12/16 09:20:46;;;;;;;36.03;19.58;;;;;;;4.99;76.01;100257.25;5098980;28;20048;-45
2020/12/16 09:23:11;;;;;;;48.58;27.83;;;;;;;4.98;76.33;100252.06;5098186;28;20052;-45
2020/12/16 09:25:37;;;;;;;58.17;33.83;;;;;;;4.96;76.29;100257.22;5097882;28;20359;-45
2020/12/16 09:28:03;;;;;;;41.30;22.02;;;;;;;5.01;76.64;100250.34;5098971;28;20052;-45
2020/12/16 09:30:30;;;;;;;31.13;18.40;;;;;;;4.96;76.82;100251.16;5098859;28;20044;-45
2020/12/16 09:32:56;;;;;;;36.25;19.35;;;;;;;4.96;77.05;100251.16;5080874;28;20424;-45
2020/12/16 09:35:23;;;;;;;107.68;52.08;;;;;;;4.99;76.84;100248.59;5097689;28;20070;-45
2020/12/16 09:37:49;;;;;;;208.70;97.68;;;;;;;4.98;76.68;100252.91;5097675;28;20040;-45
2020/12/16 09:40:18;;;;;;;93.75;46.67;;;;;;;5.01;77.04;100255.53;5098314;28;20044;-45
2020/12/16 09:42:55;;;;;;;57.00;27.20;;;;;;;5.04;76.76;100255.56;5098667;28;20105;-45
2020/12/16 09:45:21;;;;;;;52.50;32.45;;;;;;;5.00;77.29;100256.38;5098637;28;20062;-45
2020/12/16 09:47:48;;;;;;;76.50;49.08;;;;;;;5.04;77.27;100262.47;5097616;28;20035;-45
2020/12/16 09:50:14;;;;;;;54.00;40.67;;;;;;;5.06;77.58;100263.34;5098529;28;20047;-45
2020/12/16 09:52:40;;;;;;;45.30;29.95;;;;;;;5.07;77.42;100270.25;5097386;28;20066;-45
2020/12/16 09:55:20;;;;;;;65.70;38.65;;;;;;;5.10;76.82;100259.88;5098434;28;20048;-45
2020/12/16 09:58:05;;;;;;;61.45;38.85;;;;;;;5.14;77.16;100267.72;5098079;28;20043;-45
2020/12/16 10:00:32;;;;;;;70.65;49.67;;;;;;;5.11;77.38;100272.88;5098251;28;20086;-45
2020/12/16 10:03:02;;;;;;;61.80;39.55;;;;;;;5.19;77.28;100272.03;5097995;28;20070;-45
2020/12/16 10:05:28;;;;;;;53.72;33.58;;;;;;;5.17;77.49;100279.84;5097384;28;20048;-45
2020/12/16 10:07:54;;;;;;;51.80;33.28;;;;;;;5.12;77.77;100276.34;5098186;28;20062;-45
2020/12/16 10:10:20;;;;;;;43.45;29.75;;;;;;;5.13;77.37;100278.97;5097017;28;20071;-45
2020/12/16 10:12:46;;;;;;;42.03;25.58;;;;;;;5.11;77.78;100282.41;5096964;28;20040;-45
2020/12/16 10:15:12;;;;;;;45.53;23.92;;;;;;;5.13;77.70;100280.66;5096882;28;20437;-45
2020/12/16 10:17:38;;;;;;;41.35;22.92;;;;;;;5.10;77.75;100285.84;5097726;28;20061;-45
2020/12/16 10:20:05;;;;;;;38.70;22.92;;;;;;;5.17;77.74;100287.63;5096654;28;20237;-45
2020/12/16 10:22:30;;;;;;;35.03;21.27;;;;;;;5.18;77.95;100289.38;5096916;28;20059;-45
2020/12/16 10:24:56;;;;;;;36.88;22.63;;;;;;;5.25;77.84;100283.31;5097821;28;20044;-45
2020/12/16 10:27:22;;;;;;;37.35;21.83;;;;;;;5.29;77.85;100282.47;5096716;28;20040;-45
2020/12/16 10:29:48;;;;;;;40.38;22.42;;;;;;;5.39;78.15;100284.28;5097474;28;20043;-45
2020/12/16 10:32:14;;;;;;;43.97;24.63;;;;;;;5.52;77.78;100279.94;5097465;28;20044;-45
2020/12/16 10:34:40;;;;;;;53.58;28.48;;;;;;;5.58;77.57;100274.78;5097675;28;20120;-45
2020/12/16 10:37:06;;;;;;;61.30;36.03;;;;;;;5.57;77.92;100280.84;5097328;28;20378;-45
2020/12/16 10:39:32;;;;;;;58.42;32.00;;;;;;;5.68;77.63;100277.41;5096804;28;20040;-45
2020/12/16 10:41:58;;;;;;;64.32;34.58;;;;;;;5.73;77.48;100283.50;5096546;28;20044;-45
2020/12/16 10:44:24;;;;;;;67.28;36.47;;;;;;;5.80;77.53;100272.22;5079744;28;20048;-45
2020/12/16 10:46:54;;;;;;;51.00;25.70;;;;;;;5.86;77.72;100275.72;5097434;28;20047;-45
2020/12/16 10:49:23;;;;;;;54.63;29.33;;;;;;;5.89;77.64;100274.84;5096284;28;20383;-45
2020/12/16 10:51:49;;;;;;;58.40;32.63;;;;;;;5.93;76.71;100280.94;5096138;28;20040;-45
2020/12/16 10:54:15;;;;;;;46.53;27.45;;;;;;;5.93;77.09;100275.75;5097195;28;20055;-45
2020/12/16 10:56:41;;;;;;;45.05;26.65;;;;;;;5.98;76.70;100272.31;5097823;28;20424;-45
2020/12/16 10:59:07;;;;;;;52.42;29.92;;;;;;;5.95;76.69;100280.09;5097216;28;20109;-45
2020/12/16 11:01:37;;;;;;;49.75;27.88;;;;;;;5.95;76.82;100274.91;5096206;28;20047;-45
2020/12/16 11:04:07;;;;;;;47.22;25.88;;;;;;;5.97;76.96;100278.34;5095866;28;20056;-45
2020/12/16 11:06:34;;;;;;;40.38;23.63;;;;;;;5.96;76.94;100274.03;5097087;28;20129;-45
2020/12/16 11:09:00;;;;;;;42.22;24.52;;;;;;;5.89;77.17;100254.06;5096724;28;20047;-45
2020/12/16 11:11:25;;;;;;;43.78;24.83;;;;;;;5.98;77.03;100269.69;5096135;28;20058;-45
2020/12/16 11:13:52;;;;;;;40.47;22.38;;;;;;;6.07;76.82;100274.03;5097004;28;20459;-45
2020/12/16 11:16:19;;;;;;;45.53;25.67;;;;;;;6.13;76.59;100278.38;5096666;28;20051;-46
2020/12/16 11:18:47;;;;;;;45.35;25.17;;;;;;;6.21;76.55;100279.25;5096853;28;20052;-45
2020/12/16 11:21:13;;;;;;;47.60;27.15;;;;;;;6.21;76.62;100269.72;5096733;28;20048;-45
2020/12/16 11:23:40;;;;;;;45.03;27.30;;;;;;;6.19;76.28;100267.97;5097095;28;20105;-45
2020/12/16 11:26:06;;;;;;;46.83;25.85;;;;;;;6.23;76.13;100267.09;5095652;28;20047;-45
2020/12/16 11:28:32;;;;;;;46.47;26.10;;;;;;;6.24;76.21;100261.91;5095559;28;20055;-45
2020/12/16 11:31:00;;;;;;;43.80;26.30;;;;;;;6.30;76.12;100269.72;5097400;28;20058;-45